createdAt,value
2019-03-13T00:00:57.048Z,98380.14
2019-03-13T00:04:02.220Z,98387.87
2019-03-13T00:07:07.321Z,98378.94
2019-03-13T00:10:12.794Z,98373.01
2019-03-13T00:13:17.927Z,98374.33
2019-03-13T00:16:23.129Z,98392.91
2019-03-13T00:19:28.188Z,98396.97
2019-03-13T00:22:33.350Z,98386.29
2019-03-13T00:25:38.472Z,98395.85
2019-03-13T00:28:43.800Z,98389.25
2019-03-13T00:31:48.966Z,98427.65
2019-03-13T00:34:54.162Z,98434.70
2019-03-13T00:37:59.327Z,98440.40
2019-03-13T00:41:04.493Z,98477.71
2019-03-13T00:44:09.682Z,98482.71
2019-03-13T00:47:14.834Z,98485.64
2019-03-13T00:50:30.752Z,98518.19
2019-03-13T00:53:35.920Z,98568.59
2019-03-13T00:56:41.053Z,98589.02
2019-03-13T00:59:46.150Z,98598.24
2019-03-13T01:02:51.275Z,98610.78
2019-03-13T01:06:01.225Z,98627.69
2019-03-13T01:09:07.804Z,98648.66
2019-03-13T01:12:13.107Z,98651.98
2019-03-13T01:15:18.213Z,98656.82
2019-03-13T01:18:23.310Z,98659.39
2019-03-13T01:21:28.419Z,98670.75
2019-03-13T01:24:34.632Z,98681.70
2019-03-13T01:27:40.840Z,98688.09
2019-03-13T01:31:00.867Z,98700.83
2019-03-13T01:34:23.571Z,98704.75
2019-03-13T01:37:28.671Z,98711.53
2019-03-13T01:40:33.959Z,98718.41
2019-03-13T01:43:39.124Z,98722.38
2019-03-13T01:46:44.250Z,98741.39
2019-03-13T01:49:49.368Z,98732.36
2019-03-13T01:52:54.457Z,98759.95
2019-03-13T01:55:59.595Z,98752.25
2019-03-13T01:59:04.761Z,98764.78
2019-03-13T02:02:09.908Z,98773.22
2019-03-13T02:05:15.571Z,98783.14
2019-03-13T02:08:21.684Z,98796.64
2019-03-13T02:11:26.801Z,98789.86
2019-03-13T02:14:31.952Z,98802.29
2019-03-13T02:17:37.134Z,98814.66
2019-03-13T02:20:42.277Z,98821.43
2019-03-13T02:23:47.441Z,98824.53
2019-03-13T02:26:52.587Z,98827.50
2019-03-13T02:29:57.763Z,98842.22
2019-03-13T02:33:02.963Z,98847.46
2019-03-13T02:36:08.101Z,98851.06
2019-03-13T02:39:13.217Z,98851.06
2019-03-13T02:42:18.441Z,98864.85
2019-03-13T02:45:23.668Z,98875.14
2019-03-13T02:48:28.742Z,98866.39
2019-03-13T02:51:33.898Z,98878.20
2019-03-13T02:54:39.072Z,98882.17
2019-03-13T02:57:44.226Z,98877.56
2019-03-13T03:01:10.342Z,98879.61
2019-03-13T03:04:15.548Z,98884.33
2019-03-13T03:07:20.695Z,98882.36
2019-03-13T03:10:25.738Z,98897.23
2019-03-13T03:13:30.829Z,98901.06
2019-03-13T03:16:35.965Z,98899.38
2019-03-13T03:19:42.109Z,98906.28
2019-03-13T03:22:47.397Z,98916.80
2019-03-13T03:25:52.570Z,98926.23
2019-03-13T03:28:57.678Z,98919.33
2019-03-13T03:32:02.869Z,98932.06
2019-03-13T03:35:08.002Z,98943.16
2019-03-13T03:38:13.123Z,98944.89
2019-03-13T03:41:18.272Z,98945.99
2019-03-13T03:44:23.383Z,98944.31
2019-03-13T03:47:28.590Z,98959.01
2019-03-13T03:50:33.738Z,98961.73
2019-03-13T03:53:38.874Z,98965.05
2019-03-13T03:56:43.942Z,98962.38
2019-03-13T03:59:49.280Z,98947.28
2019-03-13T04:02:54.331Z,98938.27
2019-03-13T04:05:59.541Z,98940.31
2019-03-13T04:09:05.928Z,98959.34
2019-03-13T04:12:11.373Z,98961.31
2019-03-13T04:15:16.713Z,98951.97
2019-03-13T04:18:21.825Z,98964.73
2019-03-13T04:21:26.929Z,98966.25
2019-03-13T04:24:32.043Z,98959.69
2019-03-13T04:27:37.134Z,98956.20
2019-03-13T04:30:42.270Z,98961.32
2019-03-13T04:33:47.389Z,98945.92
2019-03-13T04:36:52.565Z,98946.81
2019-03-13T04:39:57.700Z,98951.92
2019-03-13T04:43:02.851Z,98949.24
2019-03-13T04:46:07.945Z,98951.97
2019-03-13T04:49:13.063Z,98953.14
2019-03-13T04:52:18.331Z,98955.58
2019-03-13T04:55:23.478Z,98964.15
2019-03-13T04:58:28.604Z,98970.94
2019-03-13T05:01:33.749Z,98974.27
2019-03-13T05:04:38.839Z,98974.26
2019-03-13T05:07:43.935Z,98982.63
2019-03-13T05:10:48.991Z,98989.25
2019-03-13T05:13:54.126Z,99000.87
2019-03-13T05:16:59.263Z,98994.83
2019-03-13T05:20:04.384Z,98999.30
2019-03-13T05:23:09.475Z,98998.36
2019-03-13T05:26:14.616Z,99001.97
2019-03-13T05:29:19.785Z,98991.05
2019-03-13T05:32:24.863Z,98985.53
2019-03-13T05:35:29.968Z,98992.44
2019-03-13T05:38:35.040Z,98983.20
2019-03-13T05:41:40.255Z,98994.48
2019-03-13T05:44:45.466Z,98987.33
2019-03-13T05:47:50.657Z,98982.77
2019-03-13T05:50:55.796Z,98982.70
2019-03-13T05:54:00.971Z,98989.72
2019-03-13T05:57:06.134Z,98988.78
2019-03-13T06:00:12.265Z,98979.17
2019-03-13T06:03:17.518Z,98982.89
2019-03-13T06:06:22.748Z,98983.70
2019-03-13T06:09:27.924Z,98976.39
2019-03-13T06:12:33.080Z,98964.39
2019-03-13T06:15:38.218Z,98957.90
2019-03-13T06:18:45.451Z,98959.64
2019-03-13T06:21:50.230Z,98961.94
2019-03-13T06:24:55.533Z,98973.42
2019-03-13T06:28:00.756Z,98969.54
2019-03-13T06:31:05.930Z,98973.98
2019-03-13T06:34:11.623Z,98969.15
2019-03-13T06:37:16.801Z,98981.70
2019-03-13T06:40:21.981Z,98978.13
2019-03-13T06:43:27.042Z,98986.95
2019-03-13T06:46:32.132Z,98986.98
2019-03-13T06:49:37.262Z,98998.70
2019-03-13T06:52:42.541Z,98992.03
2019-03-13T06:55:49.324Z,98993.87
2019-03-13T06:59:02.708Z,98987.59
2019-03-13T07:02:30.099Z,98989.31
2019-03-13T07:06:03.002Z,98985.33
2019-03-13T07:09:39.701Z,98990.37
2019-03-13T07:13:03.184Z,98989.13
2019-03-13T07:16:36.332Z,98995.59
2019-03-13T07:19:59.290Z,99005.55
2019-03-13T07:23:32.467Z,99012.39
2019-03-13T07:26:42.893Z,99004.78
2019-03-13T07:29:56.732Z,98993.03
2019-03-13T07:33:11.907Z,99011.14
2019-03-13T07:36:51.263Z,99000.34
2019-03-13T07:40:14.890Z,99025.23
2019-03-13T07:43:37.649Z,99008.24
2019-03-13T07:46:51.555Z,98998.84
2019-03-13T07:50:06.173Z,99034.78
2019-03-13T07:53:29.270Z,99047.49
2019-03-13T07:56:59.676Z,99011.24
2019-03-13T08:00:14.878Z,99022.31
2019-03-13T08:03:34.626Z,99008.94
2019-03-13T08:07:01.475Z,99004.97
2019-03-13T08:10:29.598Z,98996.66
2019-03-13T08:13:56.477Z,98998.58
2019-03-13T08:17:26.662Z,98989.31
2019-03-13T08:20:49.532Z,98996.25
2019-03-13T08:24:13.151Z,98984.36
2019-03-13T08:27:36.022Z,98970.39
2019-03-13T08:31:05.977Z,98979.59
2019-03-13T08:34:23.466Z,98983.11
2019-03-13T08:37:47.536Z,98981.03
2019-03-13T08:41:23.810Z,98969.41
2019-03-13T08:44:45.514Z,98973.30
2019-03-13T08:48:00.758Z,98972.78
2019-03-13T08:51:25.794Z,98977.38
2019-03-13T08:54:40.394Z,98965.70
2019-03-13T08:57:54.001Z,98973.73
2019-03-13T09:01:24.268Z,98972.48
2019-03-13T09:04:48.374Z,98966.81
2019-03-13T09:08:15.553Z,98975.71
2019-03-13T09:11:36.883Z,98979.58
2019-03-13T09:15:00.035Z,98969.34
2019-03-13T09:18:14.598Z,98961.99
2019-03-13T09:21:44.755Z,98966.17
2019-03-13T09:25:12.416Z,98959.38
2019-03-13T09:28:29.525Z,98961.51
2019-03-13T09:31:52.757Z,98975.77
2019-03-13T09:35:20.599Z,98975.58
2019-03-13T09:38:50.915Z,98969.31
2019-03-13T09:42:15.585Z,98963.48
2019-03-13T09:45:34.547Z,98962.91
2019-03-13T09:49:03.620Z,98957.14
2019-03-13T09:52:17.772Z,98948.47
2019-03-13T09:55:41.881Z,98948.72
2019-03-13T09:59:04.662Z,98946.50
2019-03-13T10:02:27.432Z,98962.52
2019-03-13T10:05:57.346Z,98942.39
2019-03-13T10:09:13.345Z,98948.24
2019-03-13T10:12:46.412Z,98944.66
2019-03-13T10:16:19.641Z,98942.09
2019-03-13T10:19:49.567Z,98949.36
2019-03-13T10:23:08.067Z,98938.20
2019-03-13T10:26:41.543Z,98948.36
2019-03-13T10:29:58.779Z,98952.72
2019-03-13T10:33:26.403Z,98949.86
2019-03-13T10:36:53.185Z,98944.94
2019-03-13T10:40:35.802Z,98935.17
2019-03-13T10:43:57.161Z,98931.14
2019-03-13T10:47:21.324Z,98923.59
2019-03-13T10:50:54.751Z,98953.05
2019-03-13T10:54:18.890Z,98980.92
2019-03-13T10:57:42.869Z,98977.48
2019-03-13T11:01:19.420Z,98977.79
2019-03-13T11:04:42.138Z,98964.97
2019-03-13T11:08:05.048Z,98960.78
2019-03-13T11:11:29.170Z,98940.22
2019-03-13T11:14:56.224Z,98941.13
2019-03-13T11:18:17.934Z,98936.57
2019-03-13T11:21:43.910Z,98944.99
2019-03-13T11:25:11.052Z,98929.87
2019-03-13T11:28:28.290Z,98924.80
2019-03-13T11:31:50.631Z,98916.92
2019-03-13T11:35:20.632Z,98903.79
2019-03-13T11:39:00.321Z,98889.72
2019-03-13T11:42:21.995Z,98868.27
2019-03-13T11:45:45.156Z,98859.31
2019-03-13T11:49:21.324Z,98884.61
2019-03-13T11:52:36.226Z,98858.81
2019-03-13T11:56:03.171Z,98868.12
2019-03-13T11:59:25.910Z,98868.98
2019-03-13T12:02:58.716Z,98864.86
2019-03-13T12:06:25.908Z,98855.28
2019-03-13T12:09:48.861Z,98841.38
2019-03-13T12:13:04.141Z,98846.12
2019-03-13T12:16:31.570Z,98837.30
2019-03-13T12:20:01.801Z,98850.45
2019-03-13T12:23:41.531Z,98842.96
2019-03-13T12:27:03.656Z,98837.27
2019-03-13T12:30:29.995Z,98850.95
2019-03-13T12:33:46.953Z,98837.86
2019-03-13T12:36:59.257Z,98807.80
2019-03-13T12:40:19.891Z,98820.87
2019-03-13T12:43:42.685Z,98816.66
2019-03-13T12:47:09.904Z,98812.46
2019-03-13T12:50:24.340Z,98825.46
2019-03-13T12:53:55.271Z,98801.21
2019-03-13T12:57:31.454Z,98797.05
2019-03-13T13:00:44.534Z,98806.61
2019-03-13T13:04:11.915Z,98790.34
2019-03-13T13:07:36.003Z,98790.58
2019-03-13T13:10:59.097Z,98786.77
2019-03-13T13:14:23.198Z,98785.22
2019-03-13T13:17:59.671Z,98785.44
2019-03-13T13:21:04.776Z,98791.67
2019-03-13T13:24:10.107Z,98783.25
2019-03-13T13:27:15.242Z,98796.17
2019-03-13T13:30:21.663Z,98787.36
2019-03-13T13:33:26.842Z,98786.94
2019-03-13T13:36:32.055Z,98777.79
2019-03-13T13:39:38.251Z,98788.13
2019-03-13T13:42:43.402Z,98785.86
2019-03-13T13:45:55.554Z,98788.27
2019-03-13T13:49:00.753Z,98772.35
2019-03-13T13:52:05.862Z,98762.63
2019-03-13T13:55:10.983Z,98765.67
2019-03-13T13:58:16.184Z,98762.17
2019-03-13T14:01:21.261Z,98770.27
2019-03-13T14:04:26.616Z,98772.80
2019-03-13T14:07:31.837Z,98759.41
2019-03-13T14:10:37.032Z,98750.72
2019-03-13T14:13:42.124Z,98758.74
2019-03-13T14:16:47.288Z,98760.73
2019-03-13T14:19:52.461Z,98764.97
2019-03-13T14:22:57.610Z,98754.34
2019-03-13T14:26:02.799Z,98752.09
2019-03-13T14:29:08.335Z,98749.09
2019-03-13T14:32:13.549Z,98755.60
2019-03-13T14:35:18.657Z,98765.94
2019-03-13T14:38:23.816Z,98763.56
2019-03-13T14:41:28.953Z,98762.07
2019-03-13T14:44:34.212Z,98766.55
2019-03-13T14:47:39.353Z,98757.02
2019-03-13T14:50:45.690Z,98759.76
2019-03-13T14:53:50.824Z,98748.73
2019-03-13T14:56:55.972Z,98745.38
2019-03-13T15:00:01.119Z,98746.20
2019-03-13T15:03:07.531Z,98736.27
2019-03-13T15:06:13.668Z,98753.50
2019-03-13T15:09:18.760Z,98761.00
2019-03-13T15:12:24.004Z,98761.45
2019-03-13T15:15:29.146Z,98762.30
2019-03-13T15:18:34.320Z,98757.19
2019-03-13T15:21:39.438Z,98759.89
2019-03-13T15:24:44.669Z,98748.99
2019-03-13T15:27:49.929Z,98753.05
2019-03-13T15:30:55.173Z,98743.26
2019-03-13T15:34:00.345Z,98749.55
2019-03-13T15:37:05.495Z,98754.64
2019-03-13T15:40:13.506Z,98764.25
2019-03-13T15:43:18.781Z,98750.95
2019-03-13T15:46:23.893Z,98757.03
2019-03-13T15:49:29.102Z,98764.25
2019-03-13T15:52:34.208Z,98766.19
2019-03-13T15:55:39.461Z,98762.54
2019-03-13T15:58:44.544Z,98763.45
2019-03-13T16:01:49.639Z,98745.06
2019-03-13T16:04:54.766Z,98734.69
2019-03-13T16:07:59.944Z,98735.42
2019-03-13T16:11:05.388Z,98739.14
2019-03-13T16:14:10.499Z,98733.28
2019-03-13T16:17:15.624Z,98732.55
2019-03-13T16:20:20.938Z,98725.84
2019-03-13T16:23:27.505Z,98737.19
2019-03-13T16:26:32.724Z,98741.81
2019-03-13T16:29:37.825Z,98739.14
2019-03-13T16:32:44.174Z,98748.23
2019-03-13T16:35:49.641Z,98747.89
2019-03-13T16:38:54.815Z,98753.44
2019-03-13T16:41:59.954Z,98752.00
2019-03-13T16:45:05.924Z,98748.95
2019-03-13T16:48:11.004Z,98742.56
2019-03-13T16:51:16.076Z,98738.12
2019-03-13T16:54:21.276Z,98732.33
2019-03-13T16:57:26.396Z,98739.77
2019-03-13T17:00:31.612Z,98747.84
2019-03-13T17:03:36.850Z,98757.38
2019-03-13T17:06:41.967Z,98758.32
2019-03-13T17:09:48.222Z,98755.94
2019-03-13T17:12:53.525Z,98755.25
2019-03-13T17:15:58.677Z,98760.17
2019-03-13T17:19:03.827Z,98761.43
2019-03-13T17:22:08.994Z,98751.55
2019-03-13T17:25:15.536Z,98744.17
2019-03-13T17:28:20.827Z,98733.66
2019-03-13T17:31:25.957Z,98732.43
2019-03-13T17:34:31.122Z,98731.31
2019-03-13T17:37:36.334Z,98735.81
2019-03-13T17:40:41.515Z,98744.05
2019-03-13T17:43:46.663Z,98739.20
2019-03-13T17:46:51.809Z,98748.16
2019-03-13T17:49:56.947Z,98753.63
2019-03-13T17:53:02.127Z,98761.43
2019-03-13T17:56:07.258Z,98751.16
2019-03-13T17:59:12.428Z,98745.39
2019-03-13T18:02:17.640Z,98744.05
2019-03-13T18:05:22.762Z,98743.02
2019-03-13T18:08:27.972Z,98736.13
2019-03-13T18:11:33.547Z,98730.27
2019-03-13T18:14:38.802Z,98735.10
2019-03-13T18:17:43.958Z,98736.23
2019-03-13T18:20:49.182Z,98742.70
2019-03-13T18:23:55.254Z,98741.20
2019-03-13T18:27:00.419Z,98740.88
2019-03-13T18:30:07.109Z,98737.88
2019-03-13T18:33:12.447Z,98745.08
2019-03-13T18:36:17.699Z,98724.98
2019-03-13T18:39:22.870Z,98731.27
2019-03-13T18:42:28.089Z,98733.29
2019-03-13T18:45:33.253Z,98730.70
2019-03-13T18:48:39.395Z,98718.88
2019-03-13T18:51:44.543Z,98715.35
2019-03-13T18:54:49.725Z,98721.75
2019-03-13T18:57:55.084Z,98713.00
2019-03-13T19:01:00.309Z,98701.47
2019-03-13T19:04:05.596Z,98699.37
2019-03-13T19:07:10.868Z,98692.17
2019-03-13T19:10:16.230Z,98721.13
2019-03-13T19:13:21.543Z,98715.53
2019-03-13T19:16:26.772Z,98735.75
2019-03-13T19:19:31.931Z,98735.59
2019-03-13T19:22:37.100Z,98732.53
2019-03-13T19:25:42.386Z,98732.45
2019-03-13T19:28:47.533Z,98730.59
2019-03-13T19:31:52.733Z,98741.09
2019-03-13T19:34:58.955Z,98750.77
2019-03-13T19:38:05.471Z,98760.56
2019-03-13T19:41:10.862Z,98763.42
2019-03-13T19:44:15.972Z,98770.45
2019-03-13T19:47:21.227Z,98774.37
2019-03-13T19:50:28.159Z,98787.02
2019-03-13T19:53:33.300Z,98796.72
2019-03-13T19:56:38.430Z,98794.27
2019-03-13T19:59:43.688Z,98802.27
2019-03-13T20:02:59.558Z,98817.82
2019-03-13T20:05:55.981Z,98809.79
2019-03-13T20:09:01.312Z,98814.03
2019-03-13T20:12:08.157Z,98819.16
2019-03-13T20:15:15.247Z,98817.74
2019-03-13T20:18:20.523Z,98840.55
2019-03-13T20:21:25.762Z,98819.72
2019-03-13T20:24:31.049Z,98820.50
2019-03-13T20:27:36.387Z,98828.45
2019-03-13T20:30:41.599Z,98828.65
2019-03-13T20:33:46.739Z,98837.48
2019-03-13T20:36:51.940Z,98831.52
2019-03-13T20:39:57.108Z,98837.91
2019-03-13T20:43:02.819Z,98853.02
2019-03-13T20:46:08.184Z,98856.41
2019-03-13T20:49:13.301Z,98868.66
2019-03-13T20:52:18.447Z,98845.92
2019-03-13T20:55:23.889Z,98851.69
2019-03-13T20:58:29.106Z,98855.59
2019-03-13T21:01:34.292Z,98857.35
2019-03-13T21:04:40.524Z,98860.33
2019-03-13T21:07:45.744Z,98852.09
2019-03-13T21:10:50.979Z,98853.53
2019-03-13T21:13:56.179Z,98855.59
2019-03-13T21:17:01.492Z,98861.55
2019-03-13T21:20:07.407Z,98870.70
2019-03-13T21:23:12.760Z,98871.64
2019-03-13T21:26:17.959Z,98866.20
2019-03-13T21:29:23.189Z,98870.70
2019-03-13T21:32:28.288Z,98862.70
2019-03-13T21:35:33.553Z,98875.44
2019-03-13T21:38:38.751Z,98864.95
2019-03-13T21:41:43.931Z,98887.38
2019-03-13T21:44:49.105Z,98881.83
2019-03-13T21:47:54.158Z,98897.55
2019-03-13T21:50:59.392Z,98885.92
2019-03-13T21:54:04.672Z,98887.17
2019-03-13T21:57:09.769Z,98901.25
2019-03-13T22:00:20.005Z,98899.17
2019-03-13T22:03:29.641Z,98896.91
2019-03-13T22:06:32.462Z,98905.75
2019-03-13T22:09:37.616Z,98907.50
2019-03-13T22:12:42.698Z,98906.88
2019-03-13T22:15:47.884Z,98900.11
2019-03-13T22:18:53.089Z,98899.64
2019-03-13T22:21:58.232Z,98908.06
2019-03-13T22:25:03.382Z,98912.15
2019-03-13T22:28:08.476Z,98922.41
2019-03-13T22:31:14.820Z,98929.46
2019-03-13T22:34:20.033Z,98927.31
2019-03-13T22:37:25.356Z,98926.49
2019-03-13T22:40:30.460Z,98938.73
2019-03-13T22:43:35.618Z,98955.25
2019-03-13T22:46:40.681Z,98946.56
2019-03-13T22:49:45.865Z,98956.63
2019-03-13T22:52:51.009Z,98944.06
2019-03-13T22:55:56.104Z,98947.35
2019-03-13T22:59:01.252Z,98960.70
2019-03-13T23:02:08.061Z,98958.56
2019-03-13T23:05:13.311Z,98952.33
2019-03-13T23:08:18.600Z,98965.97
2019-03-13T23:11:23.787Z,98961.63
2019-03-13T23:14:28.903Z,98953.34
2019-03-13T23:17:34.005Z,98966.91
2019-03-13T23:20:39.149Z,98967.20
2019-03-13T23:23:44.274Z,98968.03
2019-03-13T23:26:49.391Z,98981.65
2019-03-13T23:29:54.557Z,98977.64
2019-03-13T23:32:59.652Z,98968.46
2019-03-13T23:36:04.748Z,98985.08
2019-03-13T23:39:09.955Z,98976.08
2019-03-13T23:42:16.347Z,98978.34
2019-03-13T23:45:21.571Z,98983.31
2019-03-13T23:48:26.620Z,98982.26
2019-03-13T23:51:31.794Z,98986.59
2019-03-13T23:54:36.894Z,98986.20
2019-03-13T23:57:42.115Z,99001.66
